sensor_id;sensor_type;location;lat;lon;timestamp;P1;durP1;ratioP1;P2;durP2;ratioP2
82760;SDS011;72498;42.022;21.444;2024-03-25T01:44:17;6.88;;;2.78;;
82760;SDS011;72498;42.022;21.444;2024-03-25T01:46:44;5.15;;;2.17;;
82760;SDS011;72498;42.022;21.444;2024-03-25T01:49:11;6.85;;;2.40;;
82760;SDS011;72498;42.022;21.444;2024-03-25T01:51:37;6.53;;;2.00;;
82760;SDS011;72498;42.022;21.444;2024-03-25T01:54:05;6.90;;;2.05;;
82760;SDS011;72498;42.022;21.444;2024-03-25T01:56:33;6.63;;;1.70;;
82760;SDS011;72498;42.022;21.444;2024-03-25T01:59:00;5.07;;;1.60;;
82760;SDS011;72498;42.022;21.444;2024-03-25T02:01:28;4.38;;;1.50;;
82760;SDS011;72498;42.022;21.444;2024-03-25T02:06:24;4.50;;;1.58;;
82760;SDS011;72498;42.022;21.444;2024-03-25T02:08:54;6.28;;;2.35;;
82760;SDS011;72498;42.022;21.444;2024-03-25T02:11:20;5.78;;;2.58;;
82760;SDS011;72498;42.022;21.444;2024-03-25T02:13:46;7.03;;;2.40;;
82760;SDS011;72498;42.022;21.444;2024-03-25T02:16:13;6.63;;;2.33;;
82760;SDS011;72498;42.022;21.444;2024-03-25T02:18:39;6.60;;;2.50;;
82760;SDS011;72498;42.022;21.444;2024-03-25T02:21:05;10.60;;;4.47;;
82760;SDS011;72498;42.022;21.444;2024-03-25T02:23:32;10.73;;;4.80;;
82760;SDS011;72498;42.022;21.444;2024-03-25T02:25:59;12.43;;;5.43;;
82760;SDS011;72498;42.022;21.444;2024-03-25T02:28:25;10.45;;;4.43;;
82760;SDS011;72498;42.022;21.444;2024-03-25T02:30:51;14.57;;;5.78;;
82760;SDS011;72498;42.022;21.444;2024-03-25T02:33:19;12.55;;;6.38;;
82760;SDS011;72498;42.022;21.444;2024-03-25T02:35:51;10.98;;;5.30;;
82760;SDS011;72498;42.022;21.444;2024-03-25T03:29:06;11.23;;;4.78;;
82760;SDS011;72498;42.022;21.444;2024-03-25T03:31:34;10.18;;;4.40;;
82760;SDS011;72498;42.022;21.444;2024-03-25T03:34:01;9.43;;;4.05;;
82760;SDS011;72498;42.022;21.444;2024-03-25T03:36:27;8.73;;;3.65;;
82760;SDS011;72498;42.022;21.444;2024-03-25T03:38:55;9.40;;;3.80;;
82760;SDS011;72498;42.022;21.444;2024-03-25T03:41:22;9.98;;;3.30;;
82760;SDS011;72498;42.022;21.444;2024-03-25T03:43:48;9.80;;;3.35;;
82760;SDS011;72498;42.022;21.444;2024-03-25T03:46:16;7.32;;;2.78;;
82760;SDS011;72498;42.022;21.444;2024-03-25T03:48:45;5.57;;;2.15;;
82760;SDS011;72498;42.022;21.444;2024-03-25T03:51:12;7.32;;;2.15;;
82760;SDS011;72498;42.022;21.444;2024-03-25T03:53:39;7.45;;;2.20;;
82760;SDS011;72498;42.022;21.444;2024-03-25T03:56:05;5.50;;;1.90;;
82760;SDS011;72498;42.022;21.444;2024-03-25T03:58:32;6.75;;;2.28;;
82760;SDS011;72498;42.022;21.444;2024-03-25T04:00:58;8.30;;;2.88;;
82760;SDS011;72498;42.022;21.444;2024-03-25T04:03:24;7.00;;;2.38;;
82760;SDS011;72498;42.022;21.444;2024-03-25T04:05:51;7.40;;;2.60;;
82760;SDS011;72498;42.022;21.444;2024-03-25T04:08:17;7.30;;;2.92;;
82760;SDS011;72498;42.022;21.444;2024-03-25T04:10:43;6.22;;;2.47;;
82760;SDS011;72498;42.022;21.444;2024-03-25T04:13:10;6.72;;;2.63;;
82760;SDS011;72498;42.022;21.444;2024-03-25T04:15:40;7.00;;;3.03;;
82760;SDS011;72498;42.022;21.444;2024-03-25T04:18:07;6.93;;;2.80;;
82760;SDS011;72498;42.022;21.444;2024-03-25T04:20:40;6.95;;;2.78;;
82760;SDS011;72498;42.022;21.444;2024-03-25T04:23:07;7.82;;;3.47;;
82760;SDS011;72498;42.022;21.444;2024-03-25T04:25:33;9.48;;;3.90;;
82760;SDS011;72498;42.022;21.444;2024-03-25T04:28:02;8.75;;;3.67;;
82760;SDS011;72498;42.022;21.444;2024-03-25T04:30:28;9.20;;;3.75;;
82760;SDS011;72498;42.022;21.444;2024-03-25T04:32:55;9.95;;;3.72;;
82760;SDS011;72498;42.022;21.444;2024-03-25T04:35:21;7.90;;;3.40;;
82760;SDS011;72498;42.022;21.444;2024-03-25T04:37:47;8.35;;;3.70;;
82760;SDS011;72498;42.022;21.444;2024-03-25T04:40:13;10.57;;;3.92;;
82760;SDS011;72498;42.022;21.444;2024-03-25T04:42:39;12.63;;;5.97;;
82760;SDS011;72498;42.022;21.444;2024-03-25T04:45:06;13.80;;;6.60;;
82760;SDS011;72498;42.022;21.444;2024-03-25T04:47:32;13.63;;;5.88;;
82760;SDS011;72498;42.022;21.444;2024-03-25T04:49:58;15.25;;;5.78;;
82760;SDS011;72498;42.022;21.444;2024-03-25T04:52:24;12.50;;;5.68;;
82760;SDS011;72498;42.022;21.444;2024-03-25T04:54:51;13.68;;;5.95;;
82760;SDS011;72498;42.022;21.444;2024-03-25T04:57:17;12.18;;;6.07;;
82760;SDS011;72498;42.022;21.444;2024-03-25T04:59:43;15.07;;;7.45;;
82760;SDS011;72498;42.022;21.444;2024-03-25T05:02:09;15.40;;;6.90;;
82760;SDS011;72498;42.022;21.444;2024-03-25T05:04:35;18.35;;;8.25;;
82760;SDS011;72498;42.022;21.444;2024-03-25T05:07:01;16.13;;;7.63;;
82760;SDS011;72498;42.022;21.444;2024-03-25T05:09:28;15.85;;;7.28;;
82760;SDS011;72498;42.022;21.444;2024-03-25T05:11:55;14.90;;;7.18;;
82760;SDS011;72498;42.022;21.444;2024-03-25T05:14:21;14.85;;;7.45;;
82760;SDS011;72498;42.022;21.444;2024-03-25T05:16:47;19.08;;;8.88;;
82760;SDS011;72498;42.022;21.444;2024-03-25T05:19:14;18.80;;;8.60;;
82760;SDS011;72498;42.022;21.444;2024-03-25T05:21:40;19.58;;;8.15;;
82760;SDS011;72498;42.022;21.444;2024-03-25T05:24:06;21.35;;;8.90;;
82760;SDS011;72498;42.022;21.444;2024-03-25T05:26:32;21.40;;;8.90;;
82760;SDS011;72498;42.022;21.444;2024-03-25T05:28:59;17.00;;;8.13;;
82760;SDS011;72498;42.022;21.444;2024-03-25T05:31:25;16.63;;;7.93;;
82760;SDS011;72498;42.022;21.444;2024-03-25T05:33:51;17.02;;;7.15;;
82760;SDS011;72498;42.022;21.444;2024-03-25T05:36:17;16.65;;;7.20;;
82760;SDS011;72498;42.022;21.444;2024-03-25T05:38:44;13.70;;;6.15;;
82760;SDS011;72498;42.022;21.444;2024-03-25T05:41:10;14.82;;;6.70;;
82760;SDS011;72498;42.022;21.444;2024-03-25T05:43:36;13.15;;;5.70;;
82760;SDS011;72498;42.022;21.444;2024-03-25T05:46:03;14.63;;;6.88;;
82760;SDS011;72498;42.022;21.444;2024-03-25T05:48:29;14.98;;;7.50;;
82760;SDS011;72498;42.022;21.444;2024-03-25T05:51:05;16.10;;;7.32;;
82760;SDS011;72498;42.022;21.444;2024-03-25T05:53:32;17.23;;;7.65;;
82760;SDS011;72498;42.022;21.444;2024-03-25T05:55:59;15.98;;;7.95;;
82760;SDS011;72498;42.022;21.444;2024-03-25T05:58:25;16.73;;;7.90;;
82760;SDS011;72498;42.022;21.444;2024-03-25T06:00:52;57.47;;;10.50;;
82760;SDS011;72498;42.022;21.444;2024-03-25T06:03:18;17.98;;;8.32;;
82760;SDS011;72498;42.022;21.444;2024-03-25T06:05:44;14.40;;;7.38;;
82760;SDS011;72498;42.022;21.444;2024-03-25T06:08:11;16.42;;;8.05;;
82760;SDS011;72498;42.022;21.444;2024-03-25T06:10:54;15.95;;;7.90;;
82760;SDS011;72498;42.022;21.444;2024-03-25T06:13:20;31.83;;;9.52;;
82760;SDS011;72498;42.022;21.444;2024-03-25T06:15:47;17.45;;;6.25;;
82760;SDS011;72498;42.022;21.444;2024-03-25T06:18:13;14.65;;;6.10;;
82760;SDS011;72498;42.022;21.444;2024-03-25T06:20:47;15.07;;;6.53;;
82760;SDS011;72498;42.022;21.444;2024-03-25T06:23:33;18.58;;;6.40;;
82760;SDS011;72498;42.022;21.444;2024-03-25T06:26:03;15.32;;;6.68;;
82760;SDS011;72498;42.022;21.444;2024-03-25T06:29:01;14.43;;;7.20;;
82760;SDS011;72498;42.022;21.444;2024-03-25T06:34:42;16.52;;;8.23;;
82760;SDS011;72498;42.022;21.444;2024-03-25T06:37:14;19.45;;;8.57;;
82760;SDS011;72498;42.022;21.444;2024-03-25T06:39:48;18.48;;;9.60;;
82760;SDS011;72498;42.022;21.444;2024-03-25T06:42:18;18.38;;;8.85;;
82760;SDS011;72498;42.022;21.444;2024-03-25T15:35:25;5.28;;;1.90;;
82760;SDS011;72498;42.022;21.444;2024-03-25T15:37:51;6.43;;;2.60;;
82760;SDS011;72498;42.022;21.444;2024-03-25T15:40:20;4.75;;;1.70;;
82760;SDS011;72498;42.022;21.444;2024-03-25T15:48:55;5.50;;;2.30;;
82760;SDS011;72498;42.022;21.444;2024-03-25T15:54:17;6.22;;;2.42;;
82760;SDS011;72498;42.022;21.444;2024-03-25T15:59:27;6.13;;;2.42;;
82760;SDS011;72498;42.022;21.444;2024-03-25T16:01:57;8.07;;;2.97;;
82760;SDS011;72498;42.022;21.444;2024-03-25T16:04:29;9.90;;;3.05;;
82760;SDS011;72498;42.022;21.444;2024-03-25T18:36:36;14.50;;;6.35;;
82760;SDS011;72498;42.022;21.444;2024-03-25T18:39:08;11.70;;;4.50;;
82760;SDS011;72498;42.022;21.444;2024-03-25T18:41:34;9.65;;;4.13;;
